Southwest Florida International Airport
KRSW : now visible

Airfield :











YOU CAN JOIN US ON...

 
LOGIN :

Register | Disclaimer

   EN    FR    IT 

 









Legend :    VFR   Marginal VFR   IFR   Intensive IFR   Very Intensive IFR
Visi :
Ceiling :
>= 8 km
>= 3000ft
5 to 8 km
1000 to 3000 ft
1500m to 5 km
500 to 1000 ft
800 to 1500m
200 to 500 ft
< 800m
< 200 ft
Symbols :   Thunderstorms  Fog  Heavy snow  Heavy precipitations  Wind > 20 kt






- Airport Elevation : 30 ft
- IATA code : RSW


KRSW - Southwest Florida International

CURRENT METAR :
  • 260553Z AUTO 35005KT 10SM CLR 11/08 A3012 RMK AO2 SLP198 T01110083 10172 20111 50000

EXPIRED METARs :
  • 260453Z AUTO 34006KT 10SM CLR 12/08 A3012 RMK AO2 SLP198 T01220083 402440122
  • 260353Z 34006KT 10SM CLR 13/08 A3013 RMK AO2 SLP199 T01280078

TAF KRSW
Valid from the 26 at 06:00 until the 27 at 06:00 UTC


260533Z 2606/2706 35006KT P6SM SKC
FM261200 03006KT P6SM FEW200
FM262200 33006KT P6SM SCT250



MET'MAP, your aeronautical weather chart ! - Copyright ORBIFLY December 2007 - Disclaimer

ORBIFLY MET'MAP TEAM :

Programming & Development : Alexandra Zaïnal
Concept & original design : Baudouin d'Aumeries
Assistance for programming : Marc-Olivier Méhu
Technical & hardware support : Manuel Goepfert

Contact : metmap@orbifly.com




SOURCES & CREDITS :

   NOAA       Earth
Advisory